Monterey, California
Current Conditions -  °F | °C
As of 6:54 PM on Tuesday 25 Nov 2014 (Local Time) from KMRY Reporting Station
Clear Clear  
Wind Chill: 55°   Ceiling: Unl
Heat Index: 55°   Visibility: 10mi
Dew Point: 39°   Wind: 0mph
Humidity: 55%   Direction: NA
Pressure: 30.33"   Gusts: NA
Location:  36.6°N, 121.89°W
Report Text: KMRY 260254Z 00000KT 10SM CLR 13/04 A3033 RMK AO2 SLP285 T01280039 55000
Loading
Personal Weather Stations






























Interactive Weather Map New forecast layout! Learn more

10-Day Weather Forecast

Advertisements
Track Severe Weather on mobile